Terminal Aerodrome Forecast
Issued by NWS

Home | Current Version | Previous Version | Graphics & Text | Print | Product List | Glossary On
Versions: 1 2 3 4 5 6 7 8 9 10 11 12 13 14 15 16 17 18 19 20 21 22
000
FTUS43 KICT 181700
TAFCNU
TAF
KCNU 181732Z 1818/1918 05010KT P6SM SCT035 BKN120
     FM182100 08012KT P6SM SCT030 SCT100
     FM190600 10006KT P6SM BKN020
     FM190900 13007KT 5SM BR BKN015=

USA.gov is the U.S. government's official web portal to all federal, state and local government web resources and services.